Time;durP1;ratioP1;P1;durP2;ratioP2;P2;SDS_P1;SDS_P2;PMS_P1;PMS_P2;Temp;Humidity;BMP_temperature;BMP_pressure;BME280_temperature;BME280_humidity;BME280_pressure;Samples;Min_cycle;Max_cycle;Signal;HPM_P1;HPM_P2
2024/01/03 00:01:20;;;;;;;8.40;5.18;;;;;;;6.65;82.31;97996.47;5015553;27;97627;-71
2024/01/03 00:03:45;;;;;;;8.77;5.03;;;;;;;6.75;81.95;98018.53;5007268;27;101031;-74
2024/01/03 00:06:11;;;;;;;9.82;5.80;;;;;;;6.68;82.30;98011.94;5022121;27;97045;-71
2024/01/03 00:08:38;;;;;;;10.52;5.95;;;;;;;6.61;82.78;97995.81;5010582;27;97195;-70
2024/01/03 00:11:04;;;;;;;8.05;5.43;;;;;;;6.61;82.52;97987.16;5018104;27;101092;-71
2024/01/03 00:13:31;;;;;;;9.68;6.25;;;;;;;6.73;82.74;98002.94;4994977;27;99064;-72
2024/01/03 00:16:00;;;;;;;9.80;5.93;;;;;;;6.57;82.72;97978.63;5042773;27;96647;-71
2024/01/03 00:18:35;;;;;;;12.25;7.93;;;;;;;6.76;82.51;97997.56;5041182;27;97898;-73
2024/01/03 00:21:00;;;;;;;13.07;7.35;;;;;;;6.79;82.40;97973.09;5016985;27;101296;-71
2024/01/03 00:23:46;;;;;;;9.38;6.55;;;;;;;6.89;82.18;97984.69;5016836;27;97477;-71
2024/01/03 00:26:12;;;;;;;9.35;6.72;;;;;;;7.03;81.92;97978.69;4998424;27;97262;-76
2024/01/03 00:28:39;;;;;;;10.93;7.30;;;;;;;7.02;82.07;97980.47;5013783;28;97247;-73
2024/01/03 00:31:06;;;;;;;10.20;6.28;;;;;;;7.14;81.36;97981.53;5008772;27;101221;-74
2024/01/03 00:33:33;;;;;;;7.53;5.20;;;;;;;7.19;81.00;97976.91;5032369;27;98720;-71
2024/01/03 00:35:58;;;;;;;9.50;5.07;;;;;;;7.23;81.02;97981.00;5013655;27;96730;-71
2024/01/03 00:38:24;;;;;;;8.07;4.93;;;;;;;7.24;80.45;97976.63;5000727;27;97460;-71
2024/01/03 00:40:52;;;;;;;8.70;4.65;;;;;;;7.26;80.82;97980.81;5030744;27;97512;-71
2024/01/03 00:43:17;;;;;;;6.75;3.88;;;;;;;7.31;80.30;97972.75;5046127;27;97932;-71
2024/01/03 00:45:43;;;;;;;6.50;3.95;;;;;;;7.31;80.35;97966.69;5015956;27;96773;-71
2024/01/03 00:48:09;;;;;;;6.93;4.15;;;;;;;7.20;80.50;97972.50;4990466;28;96868;-71
2024/01/03 00:50:34;;;;;;;8.82;4.60;;;;;;;7.03;80.56;97950.00;5026507;27;101308;-79
2024/01/03 00:53:00;;;;;;;6.90;4.00;;;;;;;7.16;81.10;97961.41;5011873;27;101291;-71
2024/01/03 00:55:25;;;;;;;9.05;4.00;;;;;;;7.24;80.88;97958.34;5016239;27;97260;-71
2024/01/03 00:57:51;;;;;;;7.43;3.75;;;;;;;7.23;80.91;97970.56;5031136;27;96810;-71
2024/01/03 01:00:17;;;;;;;9.25;4.30;;;;;;;7.13;80.99;97959.00;5017011;27;101594;-71
2024/01/03 01:02:44;;;;;;;5.55;3.83;;;;;;;7.15;80.70;97941.47;4998065;27;101078;-73
2024/01/03 01:05:10;;;;;;;8.20;4.05;;;;;;;7.17;80.36;97936.16;5032492;27;96773;-72
2024/01/03 01:07:35;;;;;;;8.30;4.13;;;;;;;7.24;80.90;97968.78;5032444;27;96858;-73
2024/01/03 01:10:01;;;;;;;8.20;4.65;;;;;;;7.24;80.81;97960.97;5032143;27;98682;-71
2024/01/03 01:12:26;;;;;;;8.07;4.10;;;;;;;7.24;80.49;97964.44;4998775;27;101531;-74
2024/01/03 01:14:52;;;;;;;8.25;4.47;;;;;;;7.22;80.73;97965.44;5050837;27;96963;-71
2024/01/03 01:17:17;;;;;;;7.70;4.07;;;;;;;7.20;80.66;97949.88;5015371;27;97217;-73
2024/01/03 01:19:43;;;;;;;6.53;3.78;;;;;;;7.11;80.71;97932.13;5014228;27;97348;-73
2024/01/03 01:22:09;;;;;;;8.10;4.30;;;;;;;7.20;80.58;97955.09;5031918;27;100828;-73
2024/01/03 01:24:34;;;;;;;7.50;4.18;;;;;;;7.18;81.40;97951.72;5016710;27;97224;-71
2024/01/03 01:27:00;;;;;;;9.57;4.40;;;;;;;7.11;80.74;97934.75;5042778;27;96647;-71
2024/01/03 01:29:25;;;;;;;8.02;4.95;;;;;;;7.31;80.86;97954.47;5004987;28;101447;-72
2024/01/03 01:31:51;;;;;;;7.28;5.10;;;;;;;7.22;80.80;97955.00;5019221;27;97886;-72
2024/01/03 01:34:17;;;;;;;9.77;5.93;;;;;;;7.11;81.15;97939.13;5021648;28;97170;-71
2024/01/03 01:36:43;;;;;;;7.75;5.13;;;;;;;7.24;80.90;97942.69;5016988;27;96793;-72
2024/01/03 01:39:09;;;;;;;8.30;4.65;;;;;;;7.17;80.99;97946.59;5021982;28;97978;-71
2024/01/03 01:41:34;;;;;;;8.48;5.22;;;;;;;7.07;81.43;97937.59;5043392;27;97357;-74
2024/01/03 01:44:00;;;;;;;6.78;4.55;;;;;;;7.08;81.64;97942.75;5050668;27;96961;-73
2024/01/03 01:46:26;;;;;;;8.15;4.07;;;;;;;7.03;81.82;97950.81;5015732;27;96998;-72
2024/01/03 01:48:52;;;;;;;7.05;4.13;;;;;;;7.01;82.31;97938.78;5027646;27;101080;-72
2024/01/03 01:51:18;;;;;;;6.75;4.38;;;;;;;6.99;82.16;97938.91;5016497;27;101956;-71
2024/01/03 01:53:44;;;;;;;5.60;4.05;;;;;;;6.97;82.30;97919.03;5021969;28;97718;-71
2024/01/03 01:56:10;;;;;;;9.40;4.30;;;;;;;6.97;82.88;97925.09;5022712;27;97174;-71
2024/01/03 01:58:38;;;;;;;5.32;3.80;;;;;;;6.94;82.83;97922.66;5015757;27;100887;-71
2024/01/03 02:01:04;;;;;;;8.60;4.15;;;;;;;6.89;83.47;97913.41;5016492;27;101457;-71
2024/01/03 02:03:30;;;;;;;5.82;3.85;;;;;;;6.90;83.55;97899.47;5016286;27;97287;-71
2024/01/03 02:05:56;;;;;;;6.50;4.13;;;;;;;6.90;83.81;97895.09;5038697;27;96834;-71
2024/01/03 02:08:22;;;;;;;5.47;3.50;;;;;;;6.93;83.37;97894.91;5024331;27;101221;-72
2024/01/03 02:10:47;;;;;;;6.93;3.97;;;;;;;6.93;83.71;97892.31;5016079;27;97449;-71
2024/01/03 02:13:13;;;;;;;6.85;4.10;;;;;;;6.97;83.50;97891.19;5000739;27;96744;-71
2024/01/03 02:15:38;;;;;;;5.63;3.55;;;;;;;6.96;83.88;97893.91;5010756;27;96858;-72
2024/01/03 02:18:05;;;;;;;5.68;3.47;;;;;;;6.96;83.69;97893.91;5042098;27;98191;-72
2024/01/03 02:20:32;;;;;;;5.80;3.15;;;;;;;6.99;84.08;97894.56;5039994;27;97434;-72
2024/01/03 02:22:58;;;;;;;4.55;3.35;;;;;;;7.03;84.08;97905.66;5009966;27;96962;-72
2024/01/03 02:25:24;;;;;;;5.13;3.47;;;;;;;7.02;84.23;97898.75;5020429;28;97301;-72
2024/01/03 02:27:50;;;;;;;6.25;2.97;;;;;;;6.90;84.21;97879.44;5044382;27;97443;-72
2024/01/03 02:30:15;;;;;;;5.72;3.05;;;;;;;6.91;84.12;97868.06;5031716;27;97413;-72
2024/01/03 02:32:41;;;;;;;4.22;3.05;;;;;;;7.03;84.30;97890.00;5049842;27;96651;-75
2024/01/03 02:35:07;;;;;;;3.92;2.50;;;;;;;6.96;84.97;97889.53;5041360;27;96723;-72
2024/01/03 02:37:33;;;;;;;4.40;2.60;;;;;;;6.97;85.10;97879.91;5037562;27;98338;-72
2024/01/03 02:39:58;;;;;;;4.47;2.65;;;;;;;6.97;84.42;97887.75;5012231;28;98065;-72
2024/01/03 02:42:24;;;;;;;5.32;2.63;;;;;;;7.11;84.74;97881.72;5022526;27;96764;-72
2024/01/03 02:44:49;;;;;;;5.78;3.00;;;;;;;7.15;84.07;97875.41;5026371;27;97269;-72
2024/01/03 02:47:15;;;;;;;4.95;2.72;;;;;;;7.10;84.32;97877.44;5017497;27;101409;-73
2024/01/03 02:49:40;;;;;;;3.75;2.38;;;;;;;7.13;84.42;97882.50;5032497;27;97267;-76
2024/01/03 02:52:06;;;;;;;4.75;1.88;;;;;;;7.18;83.97;97859.56;5016237;28;96728;-72
2024/01/03 02:54:31;;;;;;;3.42;1.95;;;;;;;7.22;84.31;97877.56;5014490;27;96740;-72
2024/01/03 02:56:57;;;;;;;3.42;1.95;;;;;;;7.29;83.87;97890.25;5017896;27;101487;-72
2024/01/03 02:59:25;;;;;;;2.10;1.73;;;;;;;7.09;83.89;97852.28;5042312;27;97850;-71
2024/01/03 03:01:51;;;;;;;3.75;2.00;;;;;;;7.31;84.33;97870.13;5012641;28;97422;-72
2024/01/03 03:04:17;;;;;;;2.72;1.73;;;;;;;7.33;83.70;97852.59;5011545;28;96993;-72
2024/01/03 03:06:42;;;;;;;2.45;1.58;;;;;;;7.55;82.98;97879.09;5023624;27;97388;-72
2024/01/03 03:09:07;;;;;;;4.28;1.70;;;;;;;7.46;83.11;97849.16;5012640;27;101008;-72
2024/01/03 03:11:33;;;;;;;2.05;1.33;;;;;;;7.54;83.06;97874.81;5016409;27;96633;-72
2024/01/03 03:13:58;;;;;;;4.15;1.48;;;;;;;7.48;82.81;97852.53;5038468;27;97251;-72
2024/01/03 03:16:25;;;;;;;2.75;1.40;;;;;;;7.54;83.02;97861.75;5014109;27;99917;-72
2024/01/03 03:18:51;;;;;;;3.00;1.40;;;;;;;7.53;82.72;97841.78;5013409;28;100873;-73
2024/01/03 03:21:16;;;;;;;2.13;1.27;;;;;;;7.67;82.69;97867.06;5014999;27;97561;-72
2024/01/03 03:23:42;;;;;;;2.15;1.23;;;;;;;7.67;82.80;97865.28;5032206;27;96826;-72
2024/01/03 03:26:07;;;;;;;1.92;1.20;;;;;;;7.61;82.62;97844.75;5017772;27;97666;-72
2024/01/03 03:28:33;;;;;;;1.95;1.20;;;;;;;7.74;82.45;97865.75;5034795;27;97709;-72
2024/01/03 03:30:58;;;;;;;3.28;1.30;;;;;;;7.72;82.23;97854.56;5018354;27;96745;-72
2024/01/03 03:33:24;;;;;;;1.40;1.00;;;;;;;7.74;82.47;97857.94;5048753;27;97133;-71
2024/01/03 03:35:49;;;;;;;1.88;1.20;;;;;;;7.64;82.12;97836.75;5052321;27;98072;-71
2024/01/03 03:38:15;;;;;;;1.88;1.40;;;;;;;7.72;82.05;97849.34;5018619;27;98893;-71
2024/01/03 03:40:40;;;;;;;2.13;1.40;;;;;;;7.82;81.71;97858.25;5018963;27;97327;-71
2024/01/03 03:43:06;;;;;;;2.08;1.10;;;;;;;7.76;81.73;97834.31;5016400;27;96833;-75
2024/01/03 03:45:34;;;;;;;1.65;1.08;;;;;;;7.88;82.09;97851.81;5017432;28;100501;-72
2024/01/03 03:47:59;;;;;;;1.88;1.05;;;;;;;7.82;81.78;97855.66;5016110;27;97849;-72
2024/01/03 03:50:25;;;;;;;2.97;1.30;;;;;;;7.93;82.03;97855.00;5003391;28;97026;-71
2024/01/03 03:52:50;;;;;;;2.60;1.20;;;;;;;7.84;81.59;97832.91;5045567;27;96746;-71
2024/01/03 03:55:16;;;;;;;1.50;1.00;;;;;;;7.99;81.67;97845.94;5023848;27;97416;-75
2024/01/03 03:57:41;;;;;;;3.53;1.23;;;;;;;8.02;81.09;97832.69;5025198;27;101696;-72
2024/01/03 04:00:08;;;;;;;3.47;1.48;;;;;;;7.97;80.85;97819.06;5039663;27;97565;-72
2024/01/03 04:02:39;;;;;;;1.67;1.13;;;;;;;8.09;80.70;97847.06;5034986;27;97271;-72
2024/01/03 04:05:05;;;;;;;1.65;1.05;;;;;;;8.16;80.56;97845.72;5023816;27;97345;-75
2024/01/03 04:07:31;;;;;;;1.90;1.15;;;;;;;8.18;80.19;97843.84;5049674;27;97369;-72
2024/01/03 04:09:57;;;;;;;3.25;1.10;;;;;;;8.18;80.09;97841.25;5018458;27;96755;-72
2024/01/03 04:12:22;;;;;;;1.33;0.85;;;;;;;8.20;79.58;97836.72;5023701;27;96838;-72
2024/01/03 04:14:48;;;;;;;2.17;1.20;;;;;;;8.22;80.03;97847.94;5014919;27;98035;-72
2024/01/03 04:17:13;;;;;;;7.65;2.13;;;;;;;8.06;79.95;97823.75;5041784;27;97930;-73
2024/01/03 04:19:39;;;;;;;1.38;0.90;;;;;;;8.24;79.71;97847.84;5021486;27;97306;-72
2024/01/03 04:22:05;;;;;;;2.88;1.02;;;;;;;8.19;79.75;97834.25;5044902;27;96732;-73
2024/01/03 04:24:31;;;;;;;2.05;1.25;;;;;;;8.30;79.33;97850.06;5008780;27;100958;-72
2024/01/03 04:26:56;;;;;;;2.42;0.90;;;;;;;8.42;79.02;97858.94;5029146;27;97365;-73
2024/01/03 04:29:22;;;;;;;2.05;1.10;;;;;;;8.37;78.77;97860.03;5020575;27;97202;-72
2024/01/03 04:31:47;;;;;;;2.08;1.30;;;;;;;8.46;78.33;97863.03;5037331;27;96854;-74
2024/01/03 04:34:14;;;;;;;1.80;1.00;;;;;;;8.43;78.79;97869.28;5031882;27;97552;-72
2024/01/03 04:36:39;;;;;;;2.20;1.10;;;;;;;8.48;79.12;97866.38;5016911;27;101441;-72
2024/01/03 04:39:05;;;;;;;2.13;1.00;;;;;;;8.42;78.50;97872.00;5034797;27;96817;-74
2024/01/03 04:41:30;;;;;;;1.98;1.20;;;;;;;8.44;78.49;97872.75;5018751;27;96745;-72
2024/01/03 04:43:56;;;;;;;3.83;1.10;;;;;;;8.55;78.54;97875.50;5034311;27;97545;-72
2024/01/03 04:46:22;;;;;;;2.00;1.17;;;;;;;8.51;77.97;97863.56;5016566;27;101237;-72
2024/01/03 04:48:47;;;;;;;1.15;0.73;;;;;;;8.58;77.68;97881.41;5035013;27;96986;-72
2024/01/03 04:51:14;;;;;;;1.88;1.10;;;;;;;8.67;77.62;97876.47;5015555;27;96749;-72
2024/01/03 04:53:40;;;;;;;2.22;1.17;;;;;;;8.56;77.63;97864.13;5016834;27;101179;-72
2024/01/03 04:56:06;;;;;;;3.85;1.00;;;;;;;8.69;77.54;97875.44;5007167;28;100021;-72
2024/01/03 04:58:31;;;;;;;2.15;1.00;;;;;;;8.72;77.51;97877.03;5011371;27;97275;-73
2024/01/03 05:00:57;;;;;;;2.55;1.70;;;;;;;8.67;76.98;97877.34;5028516;27;98504;-72
2024/01/03 05:03:22;;;;;;;3.13;1.38;;;;;;;8.72;77.20;97883.09;5051219;27;97537;-72
2024/01/03 05:05:48;;;;;;;3.15;1.10;;;;;;;8.70;77.53;97884.16;5017320;27;97830;-72
2024/01/03 05:08:15;;;;;;;3.50;1.17;;;;;;;8.76;77.37;97891.59;5032547;27;96757;-72
2024/01/03 05:10:40;;;;;;;2.42;0.90;;;;;;;8.83;76.93;97887.63;5020571;27;96878;-72
2024/01/03 05:13:06;;;;;;;1.65;1.15;;;;;;;8.82;76.76;97891.19;5034178;27;97377;-74
2024/01/03 05:15:32;;;;;;;1.52;0.88;;;;;;;8.84;76.61;97884.06;5014042;28;100975;-72
2024/01/03 05:17:58;;;;;;;1.27;0.80;;;;;;;8.94;76.76;97882.53;5018968;28;96811;-72
2024/01/03 05:20:23;;;;;;;1.42;0.82;;;;;;;8.78;76.86;97861.75;5020309;27;96833;-72
2024/01/03 05:22:49;;;;;;;1.17;0.90;;;;;;;8.78;76.18;97867.00;5023610;28;97351;-72
2024/01/03 05:25:14;;;;;;;3.85;1.02;;;;;;;8.90;76.27;97894.16;5014304;27;97441;-72
2024/01/03 05:27:40;;;;;;;1.30;0.77;;;;;;;8.94;76.46;97893.00;5015147;27;97519;-72
2024/01/03 05:30:06;;;;;;;1.23;0.90;;;;;;;8.88;76.45;97900.44;5033888;27;96797;-72
2024/01/03 05:32:31;;;;;;;1.25;0.82;;;;;;;8.91;76.21;97897.59;5033851;27;97924;-72
2024/01/03 05:34:57;;;;;;;1.70;1.15;;;;;;;8.92;76.44;97900.09;5000248;28;101222;-74
2024/01/03 05:37:22;;;;;;;1.42;1.23;;;;;;;8.90;75.74;97885.44;5007446;27;97040;-74
2024/01/03 05:39:48;;;;;;;3.10;0.90;;;;;;;8.99;76.06;97900.56;4981082;27;96788;-74
2024/01/03 05:42:13;;;;;;;2.65;0.90;;;;;;;9.06;75.90;97907.06;5011597;28;100871;-74
2024/01/03 05:44:38;;;;;;;1.40;0.80;;;;;;;9.12;76.01;97913.66;5014982;27;97406;-74
2024/01/03 05:47:05;;;;;;;2.55;1.08;;;;;;;9.14;75.80;97912.63;5001830;27;96783;-73
2024/01/03 05:49:30;;;;;;;2.33;0.95;;;;;;;8.95;75.52;97883.38;5016927;28;96768;-73
2024/01/03 05:51:56;;;;;;;2.10;1.27;;;;;;;9.02;75.39;97895.97;5004486;27;101350;-73
2024/01/03 05:54:21;;;;;;;4.00;1.20;;;;;;;9.16;75.45;97926.47;5031514;27;98366;-73
2024/01/03 05:56:47;;;;;;;1.77;1.20;;;;;;;9.12;75.67;97921.53;5012678;27;96740;-78
2024/01/03 05:59:12;;;;;;;1.88;0.98;;;;;;;9.03;75.57;97905.47;5009494;27;97175;-74
2024/01/03 06:01:38;;;;;;;1.63;1.23;;;;;;;9.24;75.38;97928.56;5031875;27;97339;-73
2024/01/03 06:04:04;;;;;;;4.95;1.70;;;;;;;9.15;75.42;97932.63;5028439;27;97789;-74
2024/01/03 06:06:29;;;;;;;2.20;1.02;;;;;;;9.15;75.33;97931.78;4996194;27;97217;-75
2024/01/03 06:08:55;;;;;;;6.28;1.42;;;;;;;9.18;75.15;97937.66;5031674;27;96809;-77
2024/01/03 06:11:21;;;;;;;2.97;1.23;;;;;;;9.14;74.96;97938.81;5019387;27;101097;-76
2024/01/03 06:13:47;;;;;;;1.25;0.95;;;;;;;9.10;75.19;97945.16;5030956;27;102087;-85
2024/01/03 06:16:13;;;;;;;1.85;1.00;;;;;;;9.15;75.23;97937.00;5008543;27;97000;-85
2024/01/03 06:18:38;;;;;;;1.98;0.93;;;;;;;9.17;74.98;97945.63;5015920;27;96910;-85
2024/01/03 06:21:09;;;;;;;2.25;1.50;;;;;;;9.31;74.51;97956.03;5025962;27;97429;-85
2024/01/03 06:23:37;;;;;;;3.45;1.30;;;;;;;9.19;74.32;97939.34;5014635;27;100748;-85
2024/01/03 06:26:03;;;;;;;2.10;1.10;;;;;;;9.34;73.95;97960.19;5012708;27;96948;-85
2024/01/03 06:28:28;;;;;;;1.40;0.90;;;;;;;9.29;74.13;97957.88;5016878;27;96791;-86
2024/01/03 06:30:54;;;;;;;2.50;0.82;;;;;;;9.25;74.00;97949.41;5047111;27;98018;-86
2024/01/03 06:33:19;;;;;;;4.10;1.98;;;;;;;9.41;73.93;97971.94;5025438;27;97624;-85
2024/01/03 06:35:45;;;;;;;2.17;1.30;;;;;;;9.40;73.45;97967.66;5031937;27;97218;-84
2024/01/03 06:38:10;;;;;;;1.83;1.17;;;;;;;9.31;72.90;97956.03;5015673;27;96757;-85
2024/01/03 06:40:36;;;;;;;2.30;1.30;;;;;;;9.42;73.42;97981.47;4989332;28;101103;-85
2024/01/03 06:43:01;;;;;;;3.45;1.85;;;;;;;9.30;73.63;97975.25;5012082;27;101015;-85
2024/01/03 06:45:27;;;;;;;5.18;2.45;;;;;;;9.34;73.58;97976.75;5015443;27;97718;-85
2024/01/03 06:47:52;;;;;;;3.10;1.55;;;;;;;9.25;73.35;97952.03;5020775;27;96793;-85
2024/01/03 06:50:18;;;;;;;2.08;1.55;;;;;;;9.23;73.38;97951.28;5027918;27;98141;-85
2024/01/03 06:52:43;;;;;;;2.65;1.50;;;;;;;9.48;73.34;97981.06;5029517;27;98027;-84
2024/01/03 06:55:09;;;;;;;2.42;0.98;;;;;;;9.39;72.96;97981.66;5031642;27;98232;-85
2024/01/03 06:57:35;;;;;;;2.00;1.30;;;;;;;9.48;72.89;97995.00;4997493;27;97253;-85
2024/01/03 07:00:00;;;;;;;4.88;1.08;;;;;;;9.52;72.53;97996.47;5013361;27;101167;-85
2024/01/03 07:02:26;;;;;;;3.97;1.30;;;;;;;9.40;72.07;97978.97;5017668;27;97645;-84
2024/01/03 07:04:51;;;;;;;1.27;1.15;;;;;;;9.66;72.78;98007.81;5017037;27;97030;-86
2024/01/03 07:07:17;;;;;;;2.00;1.08;;;;;;;9.60;72.76;98006.47;5006956;27;97566;-82
2024/01/03 07:09:43;;;;;;;2.00;1.10;;;;;;;9.70;71.63;98006.66;5031051;27;97849;-79
2024/01/03 07:12:09;;;;;;;3.90;1.30;;;;;;;9.69;72.05;98005.00;5016385;27;100932;-85
2024/01/03 07:14:34;;;;;;;3.58;1.55;;;;;;;9.70;71.49;98006.66;5033215;27;97050;-76
2024/01/03 07:17:00;;;;;;;2.22;1.20;;;;;;;9.80;72.14;98017.34;5054275;27;96742;-73
2024/01/03 07:19:25;;;;;;;2.90;1.55;;;;;;;9.63;71.88;98024.59;5034401;27;101063;-73
2024/01/03 07:21:51;;;;;;;2.67;1.52;;;;;;;9.55;71.45;98003.28;5018301;27;97438;-73
2024/01/03 07:24:17;;;;;;;1.88;1.02;;;;;;;9.64;71.93;98015.78;5032394;27;96744;-73
2024/01/03 07:26:42;;;;;;;2.15;1.33;;;;;;;9.80;71.67;98023.44;5048160;27;96868;-75
2024/01/03 07:29:08;;;;;;;2.03;1.20;;;;;;;9.81;71.09;98025.13;5034943;27;98000;-73
2024/01/03 07:31:33;;;;;;;2.70;1.63;;;;;;;9.77;70.97;98030.66;5017906;27;97775;-75
2024/01/03 07:33:59;;;;;;;3.25;1.42;;;;;;;9.83;71.23;98030.25;5051433;27;96932;-81
2024/01/03 07:36:24;;;;;;;4.32;1.27;;;;;;;9.80;71.34;98035.69;5010227;27;97295;-75
2024/01/03 07:38:50;;;;;;;4.45;1.73;;;;;;;9.79;70.88;98044.50;5047380;27;97334;-75
2024/01/03 07:41:21;;;;;;;2.70;1.65;;;;;;;9.87;70.85;98044.84;5035400;27;97979;-75
2024/01/03 07:43:47;;;;;;;4.68;1.60;;;;;;;9.87;70.46;98044.84;5045364;27;97389;-74
2024/01/03 07:46:17;;;;;;;2.95;1.70;;;;;;;9.86;70.43;98053.63;5035539;27;96812;-76
2024/01/03 07:48:42;;;;;;;6.80;1.58;;;;;;;9.66;69.64;98034.84;5024956;27;97475;-74
2024/01/03 07:51:09;;;;;;;3.40;1.50;;;;;;;9.70;70.22;98025.00;5018263;27;101263;-75
2024/01/03 07:53:37;;;;;;;5.28;1.88;;;;;;;9.84;69.55;98040.66;5030805;27;96767;-75
2024/01/03 07:56:03;;;;;;;7.00;1.73;;;;;;;9.88;68.91;98049.13;5054573;27;96891;-74
2024/01/03 07:58:29;;;;;;;4.70;1.88;;;;;;;9.93;68.95;98049.66;5018489;27;99333;-75
2024/01/03 08:00:55;;;;;;;4.13;1.60;;;;;;;9.84;68.58;98031.94;5051724;27;97899;-75
2024/01/03 08:03:20;;;;;;;3.85;1.60;;;;;;;9.94;68.11;98043.47;5043939;27;96720;-75
2024/01/03 08:05:46;;;;;;;3.63;1.38;;;;;;;10.03;67.46;98050.72;5028066;27;96875;-75
2024/01/03 08:08:11;;;;;;;4.80;1.33;;;;;;;10.06;67.03;98049.66;5036260;27;98077;-77
2024/01/03 08:10:37;;;;;;;2.75;1.30;;;;;;;10.27;66.60;98048.25;5011556;27;101568;-76
2024/01/03 08:13:02;;;;;;;6.97;1.70;;;;;;;10.60;64.84;98039.81;5019643;28;96804;-80
2024/01/03 08:15:28;;;;;;;2.70;1.70;;;;;;;11.34;63.14;98042.41;5018884;27;97117;-76
2024/01/03 08:17:53;;;;;;;6.57;1.85;;;;;;;11.15;63.15;98040.28;5024840;27;97506;-76
2024/01/03 08:20:19;;;;;;;2.42;1.33;;;;;;;11.18;62.08;98023.47;5025667;27;97473;-76
2024/01/03 08:22:44;;;;;;;4.22;1.13;;;;;;;11.46;61.78;98038.91;5046048;27;97241;-75
2024/01/03 08:25:10;;;;;;;3.10;1.10;;;;;;;11.69;60.97;98039.81;5020366;27;96846;-75
2024/01/03 08:27:36;;;;;;;3.13;1.60;;;;;;;12.02;59.95;98043.53;5014806;27;97436;-75
2024/01/03 08:30:02;;;;;;;2.17;1.23;;;;;;;11.72;60.55;98015.06;5044883;27;97848;-75
2024/01/03 08:32:27;;;;;;;2.42;1.30;;;;;;;11.54;60.67;98033.88;5020271;28;96759;-75
2024/01/03 08:34:53;;;;;;;3.67;1.48;;;;;;;11.52;60.69;98027.94;5042929;27;97383;-76
2024/01/03 08:37:19;;;;;;;4.75;1.40;;;;;;;11.61;61.46;98052.69;5042153;27;97504;-76
2024/01/03 08:39:44;;;;;;;1.85;0.93;;;;;;;11.44;61.27;98051.31;5029876;27;97939;-75
2024/01/03 08:42:10;;;;;;;3.17;1.00;;;;;;;11.40;61.62;98059.50;5000164;27;97220;-78
2024/01/03 08:44:35;;;;;;;2.63;1.00;;;;;;;11.13;62.02;98059.72;5031091;27;96957;-79
2024/01/03 08:47:00;;;;;;;6.10;1.30;;;;;;;11.19;61.66;98068.00;5016300;28;97392;-77
2024/01/03 08:49:26;;;;;;;4.22;1.58;;;;;;;11.22;61.63;98062.53;5009942;27;97896;-75
2024/01/03 08:51:52;;;;;;;4.32;1.90;;;;;;;11.25;61.55;98061.47;5041901;27;98089;-76
2024/01/03 08:54:17;;;;;;;5.97;2.10;;;;;;;11.32;61.49;98075.84;5025944;27;100712;-75
2024/01/03 08:56:43;;;;;;;3.53;1.67;;;;;;;11.24;62.10;98079.00;5025744;27;97532;-76
2024/01/03 08:59:09;;;;;;;4.30;1.08;;;;;;;11.33;61.83;98069.63;5032052;27;98343;-84
2024/01/03 09:01:34;;;;;;;2.72;1.02;;;;;;;11.42;61.85;98086.50;5022992;27;98602;-83
2024/01/03 09:04:01;;;;;;;4.63;1.52;;;;;;;11.52;61.54;98079.66;5045068;27;96920;-86
2024/01/03 09:06:26;;;;;;;6.05;1.85;;;;;;;11.59;62.01;98082.66;5023460;27;97481;-78
2024/01/03 09:08:52;;;;;;;3.58;1.38;;;;;;;11.70;61.00;98077.44;5038293;27;98132;-76
2024/01/03 09:11:27;;;;;;;2.42;1.30;;;;;;;11.92;60.53;98079.34;5023267;27;96880;-80
2024/01/03 09:13:53;;;;;;;3.42;1.83;;;;;;;11.86;61.10;98078.00;5042847;27;97372;-75
2024/01/03 09:16:22;;;;;;;3.10;1.40;;;;;;;12.23;60.30;98097.09;5026134;27;97408;-81
2024/01/03 09:18:48;;;;;;;2.10;1.30;;;;;;;12.22;61.11;98089.34;5032979;27;97918;-76
2024/01/03 09:21:15;;;;;;;2.78;1.48;;;;;;;12.15;61.22;98112.63;5010978;27;97600;-77
2024/01/03 09:23:41;;;;;;;3.53;1.70;;;;;;;11.99;61.52;98109.50;5011232;27;97938;-76
2024/01/03 09:26:08;;;;;;;3.25;1.50;;;;;;;11.91;61.38;98109.22;5030569;27;97492;-77
2024/01/03 09:28:34;;;;;;;2.00;1.23;;;;;;;11.76;62.54;98093.59;5015072;27;101083;-86
2024/01/03 09:31:04;;;;;;;4.25;1.75;;;;;;;11.87;61.00;98110.38;4998298;27;97017;-86
2024/01/03 09:33:30;;;;;;;2.90;1.17;;;;;;;11.95;62.07;98108.84;5009594;28;97265;-86
2024/01/03 09:35:55;;;;;;;5.18;1.60;;;;;;;12.01;62.23;98104.94;5015281;27;97581;-86
2024/01/03 09:38:21;;;;;;;8.82;1.55;;;;;;;12.06;61.91;98110.69;5023070;27;98370;-86
2024/01/03 09:40:47;;;;;;;3.95;1.80;;;;;;;12.18;60.99;98099.25;5025497;27;97108;-89
2024/01/03 09:43:12;;;;;;;3.47;1.85;;;;;;;12.12;61.64;98090.97;4995271;27;97956;-86
2024/01/03 09:45:39;;;;;;;7.72;1.60;;;;;;;12.54;60.43;98102.66;5010348;27;98553;-85
2024/01/03 09:48:06;;;;;;;3.53;1.45;;;;;;;13.26;60.85;98111.97;5008700;27;97848;-90
2024/01/03 09:50:32;;;;;;;5.43;1.63;;;;;;;13.35;59.72;98111.25;5013092;27;97806;-85
2024/01/03 09:52:58;;;;;;;3.38;1.50;;;;;;;13.16;58.98;98105.75;4991518;27;97540;-88
2024/01/03 09:55:24;;;;;;;6.70;2.10;;;;;;;12.86;59.88;98079.09;4998189;27;102449;-85
2024/01/03 09:57:50;;;;;;;4.70;1.83;;;;;;;13.00;60.55;98109.63;5010112;27;101199;-86
2024/01/03 10:00:16;;;;;;;3.28;1.50;;;;;;;13.03;60.04;98111.13;5005553;28;97938;-86
2024/01/03 10:02:45;;;;;;;4.20;2.03;;;;;;;12.99;59.85;98102.66;5007840;27;98986;-87
2024/01/03 10:05:23;;;;;;;2.90;1.80;;;;;;;13.01;59.71;98098.13;4994499;27;102862;-91
2024/01/03 10:07:48;;;;;;;3.20;1.60;;;;;;;13.10;59.93;98107.06;5023696;27;98149;-86
2024/01/03 10:10:33;;;;;;;3.83;2.20;;;;;;;12.90;58.96;98084.94;5012089;27;97541;-86
2024/01/03 10:13:15;;;;;;;7.22;1.60;;;;;;;12.66;59.59;98074.56;4998539;27;97694;-85
2024/01/03 10:15:42;;;;;;;2.20;1.30;;;;;;;12.76;59.27;98103.63;4993481;27;101475;-85
2024/01/03 10:18:09;;;;;;;2.42;1.55;;;;;;;12.80;59.44;98105.91;4995199;27;102379;-82
2024/01/03 10:20:35;;;;;;;3.63;2.13;;;;;;;12.82;58.96;98106.59;5013827;27;97322;-82
2024/01/03 10:23:04;;;;;;;2.30;1.40;;;;;;;12.82;59.26;98113.66;5028299;27;97082;-82
2024/01/03 10:25:30;;;;;;;3.55;1.92;;;;;;;12.52;58.81;98088.78;5042631;27;97302;-81
2024/01/03 10:28:03;;;;;;;4.32;1.20;;;;;;;12.50;58.87;98103.84;5046271;27;97361;-85
2024/01/03 10:30:29;;;;;;;5.68;1.90;;;;;;;12.59;59.54;98110.19;5015510;27;96876;-85
2024/01/03 10:33:02;;;;;;;3.33;2.00;;;;;;;12.41;59.69;98097.50;5006961;27;98128;-86
2024/01/03 10:35:33;;;;;;;5.00;2.45;;;;;;;12.54;60.10;98118.47;5007724;27;100421;-85
2024/01/03 10:38:00;;;;;;;2.63;1.70;;;;;;;12.47;59.45;98109.34;5010690;27;98064;-84
2024/01/03 10:40:33;;;;;;;2.20;1.52;;;;;;;12.43;59.39;98113.19;5007923;27;97127;-86
2024/01/03 10:43:00;;;;;;;2.95;1.42;;;;;;;12.37;59.11;98087.34;5011175;27;97731;-85
2024/01/03 10:45:26;;;;;;;3.25;1.50;;;;;;;12.58;59.10;98095.38;5023480;27;98587;-87
2024/01/03 10:47:52;;;;;;;4.82;1.77;;;;;;;12.44;59.89;98093.78;4997210;27;99361;-85
2024/01/03 10:50:18;;;;;;;4.55;1.77;;;;;;;12.52;59.79;98096.69;5009500;28;96861;-86
2024/01/03 10:52:44;;;;;;;5.22;1.77;;;;;;;12.58;60.04;98106.72;4988489;27;97316;-85
2024/01/03 10:55:24;;;;;;;4.25;1.85;;;;;;;12.39;60.28;98095.94;5011674;28;101906;-85
2024/01/03 10:58:10;;;;;;;5.97;2.30;;;;;;;12.38;60.40;98102.16;5037974;27;97994;-85
2024/01/03 11:01:03;;;;;;;4.47;2.72;;;;;;;12.63;60.32;98106.38;5024729;27;96829;-85
2024/01/03 11:03:39;;;;;;;5.25;2.78;;;;;;;12.72;60.50;98094.31;5029614;27;96754;-85
2024/01/03 11:06:20;;;;;;;4.57;2.80;;;;;;;12.77;58.58;98063.16;5012665;27;101409;-84
2024/01/03 11:08:52;;;;;;;5.93;2.10;;;;;;;13.08;58.08;98087.91;5019381;27;97631;-84
2024/01/03 11:11:38;;;;;;;3.30;1.50;;;;;;;12.92;58.33;98088.31;4995562;28;96721;-85
2024/01/03 11:14:16;;;;;;;2.70;1.55;;;;;;;12.55;58.46;98046.44;5013579;27;97173;-85
2024/01/03 11:16:42;;;;;;;3.83;1.83;;;;;;;12.86;57.32;98086.16;5006254;28;101596;-86
2024/01/03 11:19:08;;;;;;;4.03;1.55;;;;;;;12.76;58.45;98087.81;5022938;27;101166;-85
2024/01/03 11:21:37;;;;;;;6.60;1.80;;;;;;;12.76;58.00;98090.47;5011430;28;96729;-86
2024/01/03 11:24:03;;;;;;;7.72;2.60;;;;;;;12.84;57.69;98093.34;5019304;27;97179;-86
2024/01/03 11:26:56;;;;;;;5.78;2.08;;;;;;;12.82;58.41;98090.81;5013322;27;98467;-85
2024/01/03 11:29:48;;;;;;;3.83;1.75;;;;;;;12.71;59.10;98090.81;5017464;27;99129;-85
2024/01/03 11:32:34;;;;;;;6.55;1.75;;;;;;;12.81;58.65;98086.50;5041428;27;97220;-85
2024/01/03 11:35:00;;;;;;;6.25;1.42;;;;;;;12.98;59.14;98082.56;4996812;27;97826;-85